sensor_id;sensor_type;location;lat;lon;timestamp;temperature;humidity
64561;DHT22;50960;46.838;16.838;2022-07-12T04:42:54;17.50;79.20
64561;DHT22;50960;46.838;16.838;2022-07-12T04:45:21;17.50;79.40
64561;DHT22;50960;46.838;16.838;2022-07-12T04:47:47;17.50;79.20
64561;DHT22;50960;46.838;16.838;2022-07-12T04:50:13;17.50;79.10
64561;DHT22;50960;46.838;16.838;2022-07-12T04:52:39;17.60;79.80
64561;DHT22;50960;46.838;16.838;2022-07-12T04:55:06;17.50;80.00
64561;DHT22;50960;46.838;16.838;2022-07-12T04:57:33;17.50;81.30
64561;DHT22;50960;46.838;16.838;2022-07-12T04:59:59;17.50;79.60
64561;DHT22;50960;46.838;16.838;2022-07-12T05:02:25;17.50;81.70
64561;DHT22;50960;46.838;16.838;2022-07-12T05:04:52;17.40;83.70
64561;DHT22;50960;46.838;16.838;2022-07-12T05:07:18;17.40;84.30
64561;DHT22;50960;46.838;16.838;2022-07-12T05:09:45;17.30;83.70
64561;DHT22;50960;46.838;16.838;2022-07-12T05:12:12;17.30;84.50
64561;DHT22;50960;46.838;16.838;2022-07-12T05:14:38;17.30;83.80
64561;DHT22;50960;46.838;16.838;2022-07-12T05:17:04;17.40;84.50
64561;DHT22;50960;46.838;16.838;2022-07-12T05:19:30;17.40;84.30
64561;DHT22;50960;46.838;16.838;2022-07-12T05:21:56;17.50;83.90
64561;DHT22;50960;46.838;16.838;2022-07-12T05:24:22;17.70;82.60
64561;DHT22;50960;46.838;16.838;2022-07-12T05:26:49;17.70;81.50
64561;DHT22;50960;46.838;16.838;2022-07-12T05:29:15;17.70;81.00
64561;DHT22;50960;46.838;16.838;2022-07-12T05:31:41;17.60;81.30
64561;DHT22;50960;46.838;16.838;2022-07-12T05:34:07;17.50;82.10
64561;DHT22;50960;46.838;16.838;2022-07-12T05:36:33;17.50;82.70
64561;DHT22;50960;46.838;16.838;2022-07-12T05:38:59;17.60;81.60
64561;DHT22;50960;46.838;16.838;2022-07-12T05:41:25;17.90;79.90
64561;DHT22;50960;46.838;16.838;2022-07-12T05:43:52;18.00;77.90
64561;DHT22;50960;46.838;16.838;2022-07-12T05:46:18;18.10;77.00
64561;DHT22;50960;46.838;16.838;2022-07-12T05:48:44;18.10;77.80
64561;DHT22;50960;46.838;16.838;2022-07-12T05:51:10;18.10;77.80
64561;DHT22;50960;46.838;16.838;2022-07-12T05:53:55;18.00;76.90
64561;DHT22;50960;46.838;16.838;2022-07-12T05:56:21;18.00;78.00
64561;DHT22;50960;46.838;16.838;2022-07-12T05:58:47;17.80;73.80
64561;DHT22;50960;46.838;16.838;2022-07-12T06:01:13;17.90;74.70
64561;DHT22;50960;46.838;16.838;2022-07-12T06:03:39;17.80;73.30
64561;DHT22;50960;46.838;16.838;2022-07-12T06:06:06;17.70;74.00
64561;DHT22;50960;46.838;16.838;2022-07-12T06:08:32;17.80;73.80
64561;DHT22;50960;46.838;16.838;2022-07-12T06:10:58;18.00;73.20
64561;DHT22;50960;46.838;16.838;2022-07-12T06:13:25;18.30;74.20
64561;DHT22;50960;46.838;16.838;2022-07-12T06:15:51;18.40;71.70
64561;DHT22;50960;46.838;16.838;2022-07-12T06:18:17;18.40;73.20
64561;DHT22;50960;46.838;16.838;2022-07-12T06:20:43;18.60;69.50
64561;DHT22;50960;46.838;16.838;2022-07-12T06:23:10;18.70;68.00
64561;DHT22;50960;46.838;16.838;2022-07-12T06:25:36;19.00;67.10
64561;DHT22;50960;46.838;16.838;2022-07-12T06:28:03;19.10;65.80
64561;DHT22;50960;46.838;16.838;2022-07-12T06:30:30;19.20;65.00
64561;DHT22;50960;46.838;16.838;2022-07-12T06:32:56;19.40;64.20
64561;DHT22;50960;46.838;16.838;2022-07-12T06:35:22;19.70;62.80
64561;DHT22;50960;46.838;16.838;2022-07-12T06:37:48;19.90;61.40
64561;DHT22;50960;46.838;16.838;2022-07-12T06:40:14;20.20;61.20
64561;DHT22;50960;46.838;16.838;2022-07-12T06:42:43;20.40;60.80
64561;DHT22;50960;46.838;16.838;2022-07-12T06:45:10;20.40;60.40
64561;DHT22;50960;46.838;16.838;2022-07-12T06:47:36;20.50;61.30
64561;DHT22;50960;46.838;16.838;2022-07-12T06:50:03;20.50;62.70
64561;DHT22;50960;46.838;16.838;2022-07-12T06:52:29;20.40;61.90
64561;DHT22;50960;46.838;16.838;2022-07-12T06:54:56;20.40;61.50
64561;DHT22;50960;46.838;16.838;2022-07-12T06:57:22;20.40;62.20
64561;DHT22;50960;46.838;16.838;2022-07-12T06:59:49;20.30;62.60
64561;DHT22;50960;46.838;16.838;2022-07-12T07:02:15;20.00;62.20
64561;DHT22;50960;46.838;16.838;2022-07-12T07:04:41;19.80;63.10
64561;DHT22;50960;46.838;16.838;2022-07-12T07:07:07;19.50;63.20
64561;DHT22;50960;46.838;16.838;2022-07-12T07:09:33;19.40;64.00
64561;DHT22;50960;46.838;16.838;2022-07-12T07:12:00;19.40;65.60
64561;DHT22;50960;46.838;16.838;2022-07-12T07:14:27;19.40;65.60
64561;DHT22;50960;46.838;16.838;2022-07-12T07:16:53;19.60;66.10
64561;DHT22;50960;46.838;16.838;2022-07-12T07:19:19;19.40;66.40
64561;DHT22;50960;46.838;16.838;2022-07-12T07:21:48;19.50;67.00
64561;DHT22;50960;46.838;16.838;2022-07-12T07:24:15;19.60;66.70
64561;DHT22;50960;46.838;16.838;2022-07-12T07:26:41;19.70;67.10
64561;DHT22;50960;46.838;16.838;2022-07-12T07:29:07;19.90;65.90
64561;DHT22;50960;46.838;16.838;2022-07-12T07:31:52;20.10;65.20
64561;DHT22;50960;46.838;16.838;2022-07-12T07:34:18;20.20;64.30
64561;DHT22;50960;46.838;16.838;2022-07-12T07:36:44;20.00;64.30
64561;DHT22;50960;46.838;16.838;2022-07-12T07:39:10;19.80;65.30
64561;DHT22;50960;46.838;16.838;2022-07-12T07:41:38;19.80;65.70
64561;DHT22;50960;46.838;16.838;2022-07-12T07:44:04;19.70;65.60
64561;DHT22;50960;46.838;16.838;2022-07-12T07:46:30;19.60;65.80
64561;DHT22;50960;46.838;16.838;2022-07-12T07:48:56;19.50;64.00
64561;DHT22;50960;46.838;16.838;2022-07-12T07:51:22;19.40;64.60
64561;DHT22;50960;46.838;16.838;2022-07-12T07:53:49;19.40;64.20
64561;DHT22;50960;46.838;16.838;2022-07-12T07:56:15;19.40;63.10
64561;DHT22;50960;46.838;16.838;2022-07-12T07:58:41;19.40;61.90
64561;DHT22;50960;46.838;16.838;2022-07-12T08:01:07;19.40;60.30
64561;DHT22;50960;46.838;16.838;2022-07-12T08:03:33;19.30;58.50
64561;DHT22;50960;46.838;16.838;2022-07-12T08:05:59;19.30;59.50
64561;DHT22;50960;46.838;16.838;2022-07-12T08:08:29;19.30;59.80
64561;DHT22;50960;46.838;16.838;2022-07-12T08:10:56;19.30;61.20
64561;DHT22;50960;46.838;16.838;2022-07-12T08:13:23;19.20;61.90
64561;DHT22;50960;46.838;16.838;2022-07-12T08:15:49;19.20;61.50
64561;DHT22;50960;46.838;16.838;2022-07-12T08:18:16;19.20;62.30
64561;DHT22;50960;46.838;16.838;2022-07-12T08:20:42;19.20;62.10
64561;DHT22;50960;46.838;16.838;2022-07-12T08:23:09;19.20;62.90
64561;DHT22;50960;46.838;16.838;2022-07-12T08:25:35;19.10;64.60
64561;DHT22;50960;46.838;16.838;2022-07-12T08:28:02;19.20;63.60
64561;DHT22;50960;46.838;16.838;2022-07-12T08:30:28;19.20;65.30
64561;DHT22;50960;46.838;16.838;2022-07-12T08:32:54;19.20;67.60
64561;DHT22;50960;46.838;16.838;2022-07-12T08:35:23;19.20;66.30
64561;DHT22;50960;46.838;16.838;2022-07-12T08:37:49;19.20;65.80
64561;DHT22;50960;46.838;16.838;2022-07-12T08:40:16;19.20;66.50
64561;DHT22;50960;46.838;16.838;2022-07-12T08:42:42;19.20;66.10
64561;DHT22;50960;46.838;16.838;2022-07-12T08:45:09;19.20;67.80
64561;DHT22;50960;46.838;16.838;2022-07-12T08:47:35;19.20;65.20
64561;DHT22;50960;46.838;16.838;2022-07-12T08:50:13;19.30;65.70
64561;DHT22;50960;46.838;16.838;2022-07-12T08:52:42;19.40;64.60
64561;DHT22;50960;46.838;16.838;2022-07-12T08:57:53;19.50;65.20
64561;DHT22;50960;46.838;16.838;2022-07-12T09:00:20;19.50;65.50
64561;DHT22;50960;46.838;16.838;2022-07-12T09:02:55;19.60;65.00
64561;DHT22;50960;46.838;16.838;2022-07-12T09:05:26;19.70;66.70
64561;DHT22;50960;46.838;16.838;2022-07-12T09:08:06;19.70;66.00
64561;DHT22;50960;46.838;16.838;2022-07-12T09:10:51;19.70;65.30
64561;DHT22;50960;46.838;16.838;2022-07-12T09:13:18;19.70;65.30
64561;DHT22;50960;46.838;16.838;2022-07-12T09:15:44;19.80;64.70
64561;DHT22;50960;46.838;16.838;2022-07-12T09:18:13;19.80;65.30
64561;DHT22;50960;46.838;16.838;2022-07-12T09:20:42;20.00;65.50
64561;DHT22;50960;46.838;16.838;2022-07-12T09:23:11;20.20;65.10
64561;DHT22;50960;46.838;16.838;2022-07-12T09:25:44;20.20;63.70
64561;DHT22;50960;46.838;16.838;2022-07-12T09:28:11;20.50;63.70
64561;DHT22;50960;46.838;16.838;2022-07-12T09:30:48;20.50;62.30
64561;DHT22;50960;46.838;16.838;2022-07-12T09:33:18;20.80;60.40
64561;DHT22;50960;46.838;16.838;2022-07-12T09:36:03;20.60;60.60
64561;DHT22;50960;46.838;16.838;2022-07-12T09:41:08;20.50;60.90
64561;DHT22;50960;46.838;16.838;2022-07-12T09:43:35;20.50;59.40
64561;DHT22;50960;46.838;16.838;2022-07-12T09:46:01;20.60;59.80
64561;DHT22;50960;46.838;16.838;2022-07-12T09:48:28;21.10;59.30
64561;DHT22;50960;46.838;16.838;2022-07-12T09:50:56;21.20;58.10
64561;DHT22;50960;46.838;16.838;2022-07-12T09:53:31;21.60;57.00
64561;DHT22;50960;46.838;16.838;2022-07-12T09:56:06;21.80;56.30
64561;DHT22;50960;46.838;16.838;2022-07-12T09:58:56;22.00;56.00
64561;DHT22;50960;46.838;16.838;2022-07-12T10:01:25;22.20;55.10
64561;DHT22;50960;46.838;16.838;2022-07-12T10:03:52;22.20;55.10
64561;DHT22;50960;46.838;16.838;2022-07-12T10:06:25;22.40;54.60
64561;DHT22;50960;46.838;16.838;2022-07-12T10:08:51;22.20;53.20
64561;DHT22;50960;46.838;16.838;2022-07-12T10:11:19;22.10;52.90
64561;DHT22;50960;46.838;16.838;2022-07-12T10:13:46;22.30;52.80
64561;DHT22;50960;46.838;16.838;2022-07-12T10:16:14;22.30;52.60
64561;DHT22;50960;46.838;16.838;2022-07-12T10:18:41;22.30;51.30
64561;DHT22;50960;46.838;16.838;2022-07-12T10:21:20;22.10;53.50
64561;DHT22;50960;46.838;16.838;2022-07-12T10:23:49;22.50;53.20
64561;DHT22;50960;46.838;16.838;2022-07-12T10:29:05;23.10;51.30
64561;DHT22;50960;46.838;16.838;2022-07-12T10:31:38;23.50;50.20
64561;DHT22;50960;46.838;16.838;2022-07-12T10:34:13;23.50;47.80
64561;DHT22;50960;46.838;16.838;2022-07-12T10:37:12;23.70;43.30
64561;DHT22;50960;46.838;16.838;2022-07-12T10:39:39;23.60;42.80
64561;DHT22;50960;46.838;16.838;2022-07-12T10:42:12;23.70;43.70
64561;DHT22;50960;46.838;16.838;2022-07-12T10:44:40;23.70;43.60
64561;DHT22;50960;46.838;16.838;2022-07-12T10:47:08;23.70;43.80
64561;DHT22;50960;46.838;16.838;2022-07-12T10:49:35;23.70;43.70
64561;DHT22;50960;46.838;16.838;2022-07-12T11:00:04;22.70;45.00
64561;DHT22;50960;46.838;16.838;2022-07-12T11:02:31;22.40;45.10
64561;DHT22;50960;46.838;16.838;2022-07-12T11:04:57;22.40;45.40
64561;DHT22;50960;46.838;16.838;2022-07-12T11:07:24;22.30;45.50
64561;DHT22;50960;46.838;16.838;2022-07-12T11:09:52;22.10;45.20
64561;DHT22;50960;46.838;16.838;2022-07-12T11:12:18;22.00;45.80
64561;DHT22;50960;46.838;16.838;2022-07-12T11:14:50;21.90;47.00
64561;DHT22;50960;46.838;16.838;2022-07-12T11:17:24;22.00;47.80
64561;DHT22;50960;46.838;16.838;2022-07-12T11:20:06;22.00;46.00
64561;DHT22;50960;46.838;16.838;2022-07-12T11:22:33;22.10;48.60
64561;DHT22;50960;46.838;16.838;2022-07-12T11:24:59;22.00;45.70
64561;DHT22;50960;46.838;16.838;2022-07-12T11:27:28;22.10;46.50
64561;DHT22;50960;46.838;16.838;2022-07-12T11:30:03;22.00;46.50
64561;DHT22;50960;46.838;16.838;2022-07-12T11:32:37;22.10;44.90
64561;DHT22;50960;46.838;16.838;2022-07-12T11:35:20;22.30;46.70
64561;DHT22;50960;46.838;16.838;2022-07-12T11:37:54;22.50;46.50
64561;DHT22;50960;46.838;16.838;2022-07-12T11:40:30;22.60;46.80
64561;DHT22;50960;46.838;16.838;2022-07-12T11:43:00;22.70;45.30
64561;DHT22;50960;46.838;16.838;2022-07-12T11:45:31;22.80;44.80
64561;DHT22;50960;46.838;16.838;2022-07-12T11:48:02;23.20;43.60
64561;DHT22;50960;46.838;16.838;2022-07-12T11:50:29;23.40;42.70
64561;DHT22;50960;46.838;16.838;2022-07-12T11:52:56;23.50;42.80
64561;DHT22;50960;46.838;16.838;2022-07-12T11:55:22;23.00;41.50
64561;DHT22;50960;46.838;16.838;2022-07-12T11:57:49;22.90;42.30
64561;DHT22;50960;46.838;16.838;2022-07-12T12:00:22;23.10;42.50
64561;DHT22;50960;46.838;16.838;2022-07-12T12:02:52;23.90;42.00
64561;DHT22;50960;46.838;16.838;2022-07-12T12:05:20;24.40;41.50
64561;DHT22;50960;46.838;16.838;2022-07-12T12:07:46;23.90;40.40
64561;DHT22;50960;46.838;16.838;2022-07-12T12:10:14;24.50;41.10
64561;DHT22;50960;46.838;16.838;2022-07-12T12:12:47;24.70;40.10
64561;DHT22;50960;46.838;16.838;2022-07-12T12:15:17;25.20;39.80
64561;DHT22;50960;46.838;16.838;2022-07-12T12:18:04;26.00;39.10
64561;DHT22;50960;46.838;16.838;2022-07-12T12:22:59;25.90;37.70
64561;DHT22;50960;46.838;16.838;2022-07-12T12:25:27;25.80;38.30
64561;DHT22;50960;46.838;16.838;2022-07-12T12:28:02;25.70;37.10
64561;DHT22;50960;46.838;16.838;2022-07-12T12:30:31;26.80;37.50
64561;DHT22;50960;46.838;16.838;2022-07-12T12:33:02;26.70;36.00
64561;DHT22;50960;46.838;16.838;2022-07-12T12:35:33;26.20;37.10
64561;DHT22;50960;46.838;16.838;2022-07-12T12:38:02;25.60;37.10
64561;DHT22;50960;46.838;16.838;2022-07-12T12:40:30;25.90;36.20
64561;DHT22;50960;46.838;16.838;2022-07-12T12:43:13;27.50;37.40
64561;DHT22;50960;46.838;16.838;2022-07-12T12:45:50;28.00;34.80
64561;DHT22;50960;46.838;16.838;2022-07-12T12:48:45;27.60;34.50
64561;DHT22;50960;46.838;16.838;2022-07-12T12:51:12;26.70;34.60
64561;DHT22;50960;46.838;16.838;2022-07-12T12:53:40;25.80;35.70
64561;DHT22;50960;46.838;16.838;2022-07-12T12:56:12;26.70;35.40
64561;DHT22;50960;46.838;16.838;2022-07-12T12:58:39;27.80;34.60
64561;DHT22;50960;46.838;16.838;2022-07-12T13:01:06;29.00;36.10
64561;DHT22;50960;46.838;16.838;2022-07-12T13:03:33;29.00;31.90
64561;DHT22;50960;46.838;16.838;2022-07-12T13:06:00;27.00;33.80
64561;DHT22;50960;46.838;16.838;2022-07-12T13:08:27;26.70;34.90
64561;DHT22;50960;46.838;16.838;2022-07-12T13:10:54;26.30;34.80
64561;DHT22;50960;46.838;16.838;2022-07-12T13:13:39;26.70;35.90
64561;DHT22;50960;46.838;16.838;2022-07-12T13:16:06;26.10;35.50
64561;DHT22;50960;46.838;16.838;2022-07-12T13:18:32;26.10;35.80
64561;DHT22;50960;46.838;16.838;2022-07-12T13:20:59;26.80;36.50
64561;DHT22;50960;46.838;16.838;2022-07-12T13:23:25;27.30;34.90
64561;DHT22;50960;46.838;16.838;2022-07-12T13:25:51;28.10;35.40
64561;DHT22;50960;46.838;16.838;2022-07-12T13:28:17;28.40;33.00
64561;DHT22;50960;46.838;16.838;2022-07-12T13:30:44;29.70;33.70
64561;DHT22;50960;46.838;16.838;2022-07-12T13:33:10;30.20;32.70
64561;DHT22;50960;46.838;16.838;2022-07-12T13:35:36;29.30;30.70
64561;DHT22;50960;46.838;16.838;2022-07-12T13:38:02;28.30;31.80
64561;DHT22;50960;46.838;16.838;2022-07-12T13:40:28;27.80;32.40
64561;DHT22;50960;46.838;16.838;2022-07-12T13:42:54;28.20;32.40
64561;DHT22;50960;46.838;16.838;2022-07-12T13:45:22;28.30;32.10
64561;DHT22;50960;46.838;16.838;2022-07-12T13:47:50;27.40;32.60
64561;DHT22;50960;46.838;16.838;2022-07-12T13:50:18;27.20;34.20
64561;DHT22;50960;46.838;16.838;2022-07-12T13:52:45;27.20;34.00
64561;DHT22;50960;46.838;16.838;2022-07-12T13:55:13;26.00;34.00
64561;DHT22;50960;46.838;16.838;2022-07-12T13:57:40;25.70;35.60
64561;DHT22;50960;46.838;16.838;2022-07-12T14:00:11;25.40;36.00
64561;DHT22;50960;46.838;16.838;2022-07-12T14:02:41;25.40;36.80
64561;DHT22;50960;46.838;16.838;2022-07-12T14:05:09;24.90;37.20
64561;DHT22;50960;46.838;16.838;2022-07-12T14:07:37;24.40;39.20
64561;DHT22;50960;46.838;16.838;2022-07-12T14:10:05;24.80;38.80
64561;DHT22;50960;46.838;16.838;2022-07-12T14:12:31;24.40;39.10
64561;DHT22;50960;46.838;16.838;2022-07-12T14:14:58;24.30;39.70
64561;DHT22;50960;46.838;16.838;2022-07-12T14:17:50;24.30;38.10
64561;DHT22;50960;46.838;16.838;2022-07-12T14:20:19;24.30;39.80
64561;DHT22;50960;46.838;16.838;2022-07-12T14:22:46;24.80;40.00
64561;DHT22;50960;46.838;16.838;2022-07-12T14:25:13;24.70;40.00
64561;DHT22;50960;46.838;16.838;2022-07-12T14:27:40;25.60;39.60
64561;DHT22;50960;46.838;16.838;2022-07-12T14:30:09;25.50;39.40
64561;DHT22;50960;46.838;16.838;2022-07-12T14:32:36;31.10;35.10
64561;DHT22;50960;46.838;16.838;2022-07-12T14:35:03;31.50;30.90
64561;DHT22;50960;46.838;16.838;2022-07-12T14:37:29;28.80;33.50
64561;DHT22;50960;46.838;16.838;2022-07-12T18:32:22;27.80;29.80
64561;DHT22;50960;46.838;16.838;2022-07-12T18:34:48;27.10;31.10
64561;DHT22;50960;46.838;16.838;2022-07-12T18:37:14;26.60;31.60
64561;DHT22;50960;46.838;16.838;2022-07-12T18:39:41;26.30;32.50
64561;DHT22;50960;46.838;16.838;2022-07-12T18:42:07;26.00;32.70
64561;DHT22;50960;46.838;16.838;2022-07-12T18:44:36;25.30;34.70
64561;DHT22;50960;46.838;16.838;2022-07-12T18:47:03;24.80;36.90
64561;DHT22;50960;46.838;16.838;2022-07-12T18:49:29;24.40;38.40
64561;DHT22;50960;46.838;16.838;2022-07-12T18:51:55;24.40;38.20
64561;DHT22;50960;46.838;16.838;2022-07-12T18:54:21;24.20;39.00
64561;DHT22;50960;46.838;16.838;2022-07-12T18:56:48;23.80;40.30
64561;DHT22;50960;46.838;16.838;2022-07-12T18:59:15;23.60;40.90
64561;DHT22;50960;46.838;16.838;2022-07-12T19:01:41;23.30;42.20
64561;DHT22;50960;46.838;16.838;2022-07-12T19:04:09;23.00;42.70
64561;DHT22;50960;46.838;16.838;2022-07-12T19:06:35;22.80;43.60
64561;DHT22;50960;46.838;16.838;2022-07-12T19:09:02;22.60;43.60
64561;DHT22;50960;46.838;16.838;2022-07-12T19:11:28;22.40;43.50
64561;DHT22;50960;46.838;16.838;2022-07-12T19:13:55;22.10;44.80
64561;DHT22;50960;46.838;16.838;2022-07-12T19:16:21;21.90;45.80
64561;DHT22;50960;46.838;16.838;2022-07-12T19:18:47;21.70;46.70
64561;DHT22;50960;46.838;16.838;2022-07-12T19:21:13;21.50;46.50
64561;DHT22;50960;46.838;16.838;2022-07-12T19:23:40;21.40;48.20
64561;DHT22;50960;46.838;16.838;2022-07-12T19:26:07;21.30;48.20
64561;DHT22;50960;46.838;16.838;2022-07-12T19:28:33;21.10;48.20
64561;DHT22;50960;46.838;16.838;2022-07-12T19:30:59;21.10;49.10
64561;DHT22;50960;46.838;16.838;2022-07-12T19:33:25;20.90;49.50
64561;DHT22;50960;46.838;16.838;2022-07-12T19:35:52;20.70;50.90
64561;DHT22;50960;46.838;16.838;2022-07-12T19:38:19;20.60;51.30
64561;DHT22;50960;46.838;16.838;2022-07-12T19:40:46;20.40;52.30
64561;DHT22;50960;46.838;16.838;2022-07-12T19:43:12;20.40;52.60
64561;DHT22;50960;46.838;16.838;2022-07-12T19:45:39;20.40;52.10
64561;DHT22;50960;46.838;16.838;2022-07-12T19:48:05;20.30;52.00
64561;DHT22;50960;46.838;16.838;2022-07-12T19:50:34;20.30;53.30
64561;DHT22;50960;46.838;16.838;2022-07-12T19:53:01;20.20;52.50
64561;DHT22;50960;46.838;16.838;2022-07-12T19:55:27;20.00;54.20
64561;DHT22;50960;46.838;16.838;2022-07-12T19:57:54;19.90;55.00
64561;DHT22;50960;46.838;16.838;2022-07-12T20:00:20;19.70;54.70
64561;DHT22;50960;46.838;16.838;2022-07-12T20:02:47;19.60;55.50
